createdAt,value
2019-06-07T00:01:56.530Z,101031.48
2019-06-07T00:04:28.119Z,101036.19
2019-06-07T00:06:59.338Z,101035.59
2019-06-07T00:09:30.586Z,101032.53
2019-06-07T00:12:01.745Z,101035.84
2019-06-07T00:14:33.098Z,101036.64
2019-06-07T00:17:04.355Z,101035.75
2019-06-07T00:19:35.581Z,101030.22
2019-06-07T00:22:16.467Z,101030.17
2019-06-07T00:24:39.593Z,101030.73
2019-06-07T00:27:11.634Z,101025.19
2019-06-07T00:29:43.622Z,101033.68
2019-06-07T00:32:18.369Z,101029.78
2019-06-07T00:34:47.714Z,101034.09
2019-06-07T00:37:20.667Z,101036.27
2019-06-07T00:40:12.876Z,101032.36
2019-06-07T00:42:24.671Z,101023.47
2019-06-07T00:44:55.956Z,101028.92
2019-06-07T00:47:27.129Z,101023.97
2019-06-07T00:49:58.237Z,101024.49
2019-06-07T00:55:02.419Z,101030.11
2019-06-07T00:57:33.579Z,101021.73
2019-06-07T01:00:06.606Z,101027.02
2019-06-07T01:02:37.878Z,101019.50
2019-06-07T01:05:09.601Z,101021.98
2019-06-07T01:07:40.853Z,101027.91
2019-06-07T01:10:14.540Z,101021.25
2019-06-07T01:12:46.735Z,101016.52
2019-06-07T01:15:25.600Z,101013.89
2019-06-07T01:18:33.861Z,101016.04
2019-06-07T01:20:27.028Z,101013.72
2019-06-07T01:22:58.140Z,101009.27
2019-06-07T01:25:29.373Z,101014.18
2019-06-07T01:28:00.666Z,101019.69
2019-06-07T01:30:31.936Z,101020.60
2019-06-07T01:33:03.197Z,101017.59
2019-06-07T01:35:34.524Z,101025.00
2019-06-07T01:38:05.809Z,101021.98
2019-06-07T01:40:37.038Z,101025.42
2019-06-07T01:43:08.304Z,101026.58
2019-06-07T01:45:39.698Z,101033.27
2019-06-07T01:48:10.980Z,101036.56
2019-06-07T01:50:42.297Z,101043.87
2019-06-07T01:53:13.457Z,101047.66
2019-06-07T01:55:44.668Z,101046.38
2019-06-07T01:58:17.049Z,101047.97
2019-06-07T02:00:48.273Z,101048.00
2019-06-07T02:03:22.309Z,101050.16
2019-06-07T02:05:52.632Z,101058.47
2019-06-07T02:08:26.436Z,101056.68
2019-06-07T02:10:56.883Z,101055.05
2019-06-07T02:13:30.609Z,101059.63
2019-06-07T02:16:01.041Z,101054.44
2019-06-07T02:18:34.396Z,101047.66
2019-06-07T02:21:05.333Z,101043.93
2019-06-07T02:23:36.477Z,101044.53
2019-06-07T02:26:07.776Z,101051.78
2019-06-07T02:28:45.656Z,101051.61
2019-06-07T02:31:12.070Z,101062.68
2019-06-07T02:33:43.235Z,101053.34
2019-06-07T02:36:14.567Z,101055.31
2019-06-07T02:38:46.673Z,101054.50
2019-06-07T02:41:18.011Z,101061.70
2019-06-07T02:43:49.316Z,101062.86
2019-06-07T02:46:32.584Z,101066.18
2019-06-07T02:48:57.358Z,101064.39
2019-06-07T02:51:35.834Z,101061.38
2019-06-07T02:54:01.651Z,101063.92
2019-06-07T02:56:45.424Z,101054.04
2019-06-07T02:59:06.092Z,101054.93
2019-06-07T03:01:41.735Z,101048.03
2019-06-07T03:04:11.273Z,101045.38
2019-06-07T03:06:43.807Z,101047.69
2019-06-07T03:09:17.045Z,101047.52
2019-06-07T03:11:50.273Z,101045.69
2019-06-07T03:14:22.438Z,101050.43
2019-06-07T03:16:57.173Z,101057.73
2019-06-07T03:19:37.744Z,101051.96
2019-06-07T03:22:09.313Z,101056.73
2019-06-07T03:24:42.467Z,101060.91
2019-06-07T03:27:39.392Z,101055.97
2019-06-07T03:29:47.242Z,101052.98
2019-06-07T03:32:18.628Z,101058.82
2019-06-07T03:34:49.793Z,101051.67
2019-06-07T03:37:21.019Z,101049.23
2019-06-07T03:39:52.177Z,101044.02
2019-06-07T03:42:23.404Z,101045.42
2019-06-07T03:44:54.576Z,101048.73
2019-06-07T03:47:28.377Z,101053.70
2019-06-07T03:49:58.825Z,101054.27
2019-06-07T03:52:33.222Z,101056.20
2019-06-07T03:55:02.951Z,101058.09
2019-06-07T03:58:24.781Z,101053.94
2019-06-07T04:00:10.415Z,101058.08
2019-06-07T04:02:42.280Z,101058.88
2019-06-07T04:05:13.596Z,101052.75
2019-06-07T04:07:44.841Z,101053.85
2019-06-07T04:10:16.010Z,101061.32
2019-06-07T04:12:47.251Z,101059.03
2019-06-07T04:15:18.429Z,101056.22
2019-06-07T04:18:01.267Z,101052.84
2019-06-07T04:20:22.554Z,101046.44
2019-06-07T04:22:53.728Z,101045.02
2019-06-07T04:25:24.887Z,101051.58
2019-06-07T04:27:56.212Z,101054.39
2019-06-07T04:30:43.783Z,101045.69
2019-06-07T04:33:15.318Z,101041.28
2019-06-07T04:35:46.519Z,101048.36
2019-06-07T04:38:17.735Z,101047.14
2019-06-07T04:40:50.411Z,101044.05
2019-06-07T04:43:21.635Z,101048.34
2019-06-07T04:45:52.829Z,101049.58
2019-06-07T04:48:26.096Z,101052.80
2019-06-07T04:50:58.869Z,101046.30
2019-06-07T04:53:34.215Z,101048.91
2019-06-07T04:56:02.973Z,101059.98
2019-06-07T04:58:35.706Z,101057.08
2019-06-07T05:01:24.405Z,101052.63
2019-06-07T05:03:44.057Z,101054.96
2019-06-07T05:06:12.834Z,101056.64
2019-06-07T05:08:44.099Z,101048.78
2019-06-07T05:11:15.223Z,101048.30
2019-06-07T05:13:46.434Z,101039.47
2019-06-07T05:16:17.596Z,101042.12
2019-06-07T05:18:48.945Z,101039.96
2019-06-07T05:21:20.148Z,101038.83
2019-06-07T05:24:10.341Z,101045.36
2019-06-07T05:26:24.281Z,101038.88
2019-06-07T05:28:55.506Z,101041.69
2019-06-07T05:31:26.890Z,101046.23
2019-06-07T05:33:58.129Z,101045.31
2019-06-07T05:36:29.761Z,101045.75
2019-06-07T05:39:02.239Z,101044.86
2019-06-07T05:41:34.173Z,101050.02
2019-06-07T05:44:12.678Z,101043.20
2019-06-07T05:46:43.415Z,101041.92
2019-06-07T05:49:12.591Z,101041.42
2019-06-07T05:51:45.062Z,101045.25
2019-06-07T05:54:16.492Z,101047.45
2019-06-07T05:56:47.745Z,101045.62
2019-06-07T05:59:19.012Z,101049.80
2019-06-07T06:02:01.881Z,101056.03
2019-06-07T06:04:23.134Z,101069.06
2019-06-07T06:06:54.327Z,101064.97
2019-06-07T06:09:25.787Z,101061.27
2019-06-07T06:12:02.261Z,101065.70
2019-06-07T06:14:29.895Z,101065.28
2019-06-07T06:17:01.096Z,101060.11
2019-06-07T06:19:32.347Z,101057.64
2019-06-07T06:22:03.564Z,101060.14
2019-06-07T06:24:34.792Z,101063.43
2019-06-07T06:27:28.542Z,101064.05
2019-06-07T06:29:40.539Z,101071.73
2019-06-07T06:32:41.009Z,101067.03
2019-06-07T06:34:49.358Z,101069.45
2019-06-07T06:37:17.630Z,101065.73
2019-06-07T06:39:50.130Z,101061.14
2019-06-07T06:42:21.446Z,101057.03
2019-06-07T06:44:54.125Z,101059.35
2019-06-07T06:47:28.189Z,101063.62
2019-06-07T06:50:01.093Z,101061.52
2019-06-07T06:52:32.349Z,101056.25
2019-06-07T06:55:05.694Z,101066.05
2019-06-07T06:57:36.891Z,101062.91
2019-06-07T07:00:10.484Z,101060.11
2019-06-07T07:03:35.019Z,101059.59
2019-06-07T07:05:14.710Z,101065.62
2019-06-07T07:07:50.078Z,101057.56
2019-06-07T07:10:27.877Z,101062.88
2019-06-07T07:12:59.051Z,101060.65
2019-06-07T07:15:31.446Z,101059.20
2019-06-07T07:18:08.453Z,101059.84
2019-06-07T07:20:36.480Z,101066.77
2019-06-07T07:23:14.195Z,101069.38
2019-06-07T07:25:58.255Z,101073.17
2019-06-07T07:28:24.487Z,101070.67
2019-06-07T07:30:57.306Z,101074.94
2019-06-07T07:34:20.164Z,101071.95
2019-06-07T07:36:23.251Z,101071.62
2019-06-07T07:38:34.511Z,101067.95
2019-06-07T07:41:14.582Z,101072.88
2019-06-07T07:43:38.629Z,101066.91
2019-06-07T07:46:28.288Z,101068.86
2019-06-07T07:48:43.575Z,101072.69
2019-06-07T07:51:14.865Z,101068.95
2019-06-07T07:53:54.597Z,101066.41
2019-06-07T07:56:18.923Z,101066.38
2019-06-07T07:58:54.695Z,101065.84
2019-06-07T08:01:23.119Z,101065.97
2019-06-07T08:03:56.135Z,101067.14
2019-06-07T08:06:27.403Z,101068.03
2019-06-07T08:08:59.142Z,101059.59
2019-06-07T08:11:30.458Z,101063.73
2019-06-07T08:14:04.688Z,101063.78
2019-06-07T08:16:35.885Z,101070.03
2019-06-07T08:19:08.561Z,101072.11
2019-06-07T08:21:39.787Z,101073.84
2019-06-07T08:24:11.003Z,101068.21
2019-06-07T08:26:42.276Z,101068.16
2019-06-07T08:29:13.467Z,101071.05
2019-06-07T08:31:44.723Z,101066.44
2019-06-07T08:34:17.314Z,101069.80
2019-06-07T08:36:49.948Z,101074.17
2019-06-07T08:39:21.506Z,101069.98
2019-06-07T08:42:00.557Z,101063.35
2019-06-07T08:44:25.877Z,101063.30
2019-06-07T08:47:18.414Z,101069.57
2019-06-07T08:49:29.905Z,101058.80
2019-06-07T08:52:09.871Z,101049.25
2019-06-07T08:54:34.102Z,101048.09
2019-06-07T08:57:19.953Z,101047.21
2019-06-07T08:59:38.202Z,101048.17
2019-06-07T09:02:22.854Z,101043.33
2019-06-07T09:04:43.244Z,101046.62
2019-06-07T09:07:19.450Z,101039.84
2019-06-07T09:09:47.499Z,101049.77
2019-06-07T09:12:21.517Z,101046.20
2019-06-07T09:15:06.898Z,101047.55
2019-06-07T09:17:27.905Z,101036.66
2019-06-07T09:20:09.401Z,101040.50
2019-06-07T09:22:35.500Z,101051.09
2019-06-07T09:25:20.061Z,101045.19
2019-06-07T09:27:40.891Z,101040.31
2019-06-07T09:30:18.634Z,101043.62
2019-06-07T09:32:45.779Z,101028.52
2019-06-07T09:35:17.883Z,101036.06
2019-06-07T09:38:07.294Z,101033.36
2019-06-07T09:40:27.566Z,101033.86
2019-06-07T09:43:46.730Z,101024.53
2019-06-07T09:45:31.328Z,101029.72
2019-06-07T09:48:11.558Z,101027.46
2019-06-07T09:50:35.492Z,101038.52
2019-06-07T09:53:19.030Z,101030.34
2019-06-07T09:55:39.974Z,101033.59
2019-06-07T09:58:48.572Z,101030.56
2019-06-07T10:00:44.270Z,101023.81
2019-06-07T10:03:21.252Z,101031.98
2019-06-07T10:05:48.520Z,101036.13
2019-06-07T10:09:26.218Z,101037.34
2019-06-07T10:10:52.720Z,101039.21
2019-06-07T10:13:24.144Z,101041.69
2019-06-07T10:15:55.302Z,101040.61
2019-06-07T10:18:26.653Z,101042.78
2019-06-07T10:20:59.327Z,101044.45
2019-06-07T10:23:30.973Z,101045.46
2019-06-07T10:26:03.965Z,101046.59
2019-06-07T10:28:35.511Z,101043.06
2019-06-07T10:31:07.810Z,101043.30
2019-06-07T10:33:41.311Z,101043.17
2019-06-07T10:36:12.567Z,101043.23
2019-06-07T10:38:43.820Z,101047.23
2019-06-07T10:41:15.295Z,101046.63
2019-06-07T10:43:46.554Z,101043.98
2019-06-07T10:46:17.818Z,101040.94
2019-06-07T10:48:49.065Z,101037.19
2019-06-07T10:51:20.187Z,101025.61
2019-06-07T10:53:51.550Z,101035.22
2019-06-07T10:56:22.815Z,101031.69
2019-06-07T10:58:54.617Z,101013.63
2019-06-07T11:01:25.858Z,101011.80
2019-06-07T11:03:57.275Z,101006.37
2019-06-07T11:06:28.508Z,101011.53
2019-06-07T11:08:59.740Z,101014.41
2019-06-07T11:11:30.980Z,101013.10
2019-06-07T11:14:02.251Z,101011.52
2019-06-07T11:16:33.578Z,101012.98
2019-06-07T11:19:06.059Z,101012.08
2019-06-07T11:21:37.757Z,101009.08
2019-06-07T11:24:10.144Z,101010.08
2019-06-07T11:26:41.519Z,101008.92
2019-06-07T11:29:12.983Z,101010.97
2019-06-07T11:31:47.281Z,101004.00
2019-06-07T11:34:19.430Z,101010.97
2019-06-07T11:36:51.184Z,101012.15
2019-06-07T11:39:22.643Z,101009.89
2019-06-07T11:41:53.856Z,101003.89
2019-06-07T11:44:25.154Z,100997.73
2019-06-07T11:47:00.431Z,100998.41
2019-06-07T11:49:31.732Z,100996.37
2019-06-07T11:52:03.276Z,100990.13
2019-06-07T11:54:35.482Z,100981.20
2019-06-07T11:57:08.841Z,100980.31
2019-06-07T11:59:40.146Z,100982.95
2019-06-07T12:02:11.533Z,100982.04
2019-06-07T12:04:42.966Z,100973.72
2019-06-07T12:07:15.939Z,100979.61
2019-06-07T12:09:56.536Z,100982.03
2019-06-07T12:12:20.782Z,100982.64
2019-06-07T12:14:52.037Z,100978.06
2019-06-07T12:17:23.305Z,100976.52
2019-06-07T12:19:54.756Z,100972.64
2019-06-07T12:22:25.967Z,100970.30
2019-06-07T12:24:57.261Z,100968.01
2019-06-07T12:27:29.354Z,100962.67
2019-06-07T12:30:09.208Z,100965.86
2019-06-07T12:32:33.587Z,100957.90
2019-06-07T12:35:08.714Z,100954.29
2019-06-07T12:37:44.262Z,100952.39
2019-06-07T12:40:24.511Z,100953.02
2019-06-07T12:42:47.572Z,100949.48
2019-06-07T12:45:40.164Z,100943.78
2019-06-07T12:47:51.668Z,100936.09
2019-06-07T12:50:25.304Z,100943.56
2019-06-07T12:52:55.952Z,100934.77
2019-06-07T12:55:27.348Z,100937.80
2019-06-07T12:57:58.621Z,100934.59
2019-06-07T13:00:30.361Z,100925.16
2019-06-07T13:03:01.502Z,100918.35
2019-06-07T13:05:32.705Z,100918.51
2019-06-07T13:08:04.795Z,100904.95
2019-06-07T13:10:36.062Z,100900.70
2019-06-07T13:13:08.858Z,100904.02
2019-06-07T13:15:40.330Z,100899.95
2019-06-07T13:18:15.014Z,100896.62
2019-06-07T13:20:45.134Z,100891.19
2019-06-07T13:23:16.490Z,100896.83
2019-06-07T13:25:48.012Z,100888.66
2019-06-07T13:28:20.742Z,100890.42
2019-06-07T13:30:52.912Z,100890.83
2019-06-07T13:33:25.763Z,100888.67
2019-06-07T13:35:57.231Z,100894.16
2019-06-07T13:38:29.072Z,100891.60
2019-06-07T13:41:00.391Z,100895.41
2019-06-07T13:43:32.366Z,100885.92
2019-06-07T13:46:03.559Z,100892.45
2019-06-07T13:48:34.736Z,100891.37
2019-06-07T13:51:05.988Z,100893.91
2019-06-07T13:53:37.172Z,100891.28
2019-06-07T13:56:08.455Z,100887.09
2019-06-07T13:58:39.567Z,100889.09
2019-06-07T14:01:10.771Z,100903.19
2019-06-07T14:03:41.929Z,100890.04
2019-06-07T14:06:13.163Z,100888.62
2019-06-07T14:08:44.379Z,100882.09
2019-06-07T14:11:15.593Z,100889.50
2019-06-07T14:13:46.744Z,100890.30
2019-06-07T14:16:17.944Z,100882.63
2019-06-07T14:18:49.107Z,100882.10
2019-06-07T14:21:20.467Z,100875.03
2019-06-07T14:23:51.673Z,100876.30
2019-06-07T14:26:23.262Z,100874.71
2019-06-07T14:28:54.516Z,100873.66
2019-06-07T14:31:26.271Z,100866.16
2019-06-07T14:33:57.610Z,100874.25
2019-06-07T14:36:28.960Z,100858.69
2019-06-07T14:39:00.382Z,100859.76
2019-06-07T14:41:31.929Z,100860.50
2019-06-07T14:44:04.528Z,100903.66
2019-06-07T14:46:35.782Z,100938.34
2019-06-07T14:49:07.410Z,100977.13
2019-06-07T14:51:39.101Z,101004.30
2019-06-07T14:54:10.296Z,100997.83
2019-06-07T14:56:42.028Z,100926.09
2019-06-07T14:59:13.796Z,100910.65
2019-06-07T15:01:45.022Z,100908.73
2019-06-07T15:04:16.182Z,100916.83
2019-06-07T15:06:48.020Z,100925.64
2019-06-07T15:09:19.643Z,100928.98
2019-06-07T15:11:50.970Z,100912.64
2019-06-07T15:14:22.150Z,100911.47
2019-06-07T15:16:53.366Z,100910.57
2019-06-07T15:19:24.576Z,100926.25
2019-06-07T15:21:55.779Z,100923.47
2019-06-07T15:24:28.101Z,100926.72
2019-06-07T15:26:59.328Z,100919.74
2019-06-07T15:29:31.683Z,100924.89
2019-06-07T15:32:03.016Z,100925.05
2019-06-07T15:34:34.369Z,100931.58
2019-06-07T15:37:05.605Z,100930.13
2019-06-07T15:39:36.864Z,100928.51
2019-06-07T15:42:08.059Z,100925.47
2019-06-07T15:44:39.552Z,100925.86
2019-06-07T15:47:10.834Z,100929.08
2019-06-07T15:49:41.985Z,100925.59
2019-06-07T15:52:13.212Z,100923.71
2019-06-07T15:54:44.290Z,100914.20
2019-06-07T15:57:15.555Z,100920.88
2019-06-07T15:59:46.736Z,100910.63
2019-06-07T16:02:17.944Z,100907.52
2019-06-07T16:04:49.032Z,100905.02
2019-06-07T16:07:20.253Z,100907.20
2019-06-07T16:09:51.438Z,100899.73
2019-06-07T16:12:22.644Z,100904.93
2019-06-07T16:14:53.809Z,100901.33
2019-06-07T16:17:25.037Z,100902.69
2019-06-07T16:19:56.248Z,100901.87
2019-06-07T16:22:27.498Z,100901.15
2019-06-07T16:24:58.660Z,100897.45
2019-06-07T16:27:29.913Z,100889.20
2019-06-07T16:30:08.785Z,100896.84
2019-06-07T16:32:34.994Z,100890.45
2019-06-07T16:35:07.706Z,100900.97
2019-06-07T16:37:40.654Z,100905.64
2019-06-07T16:40:13.462Z,100908.56
2019-06-07T16:42:45.213Z,100912.74
2019-06-07T16:45:16.631Z,100911.16
2019-06-07T16:47:49.764Z,100916.47
2019-06-07T16:50:20.748Z,100918.27
2019-06-07T16:52:51.999Z,100918.27
2019-06-07T16:55:23.272Z,100923.78
2019-06-07T16:57:54.889Z,100927.10
2019-06-07T17:00:26.073Z,100932.22
2019-06-07T17:02:57.338Z,100933.35
2019-06-07T17:05:28.526Z,100939.28
2019-06-07T17:07:59.757Z,100939.28
2019-06-07T17:10:30.933Z,100941.33
2019-06-07T17:13:02.174Z,100939.18
2019-06-07T17:15:33.355Z,100940.27
2019-06-07T17:18:04.590Z,100934.06
2019-06-07T17:20:36.248Z,100937.58
2019-06-07T17:23:07.512Z,100945.55
2019-06-07T17:25:39.442Z,100943.75
2019-06-07T17:28:10.803Z,100943.45
2019-06-07T17:30:41.925Z,100945.55
2019-06-07T17:33:13.136Z,100943.84
2019-06-07T17:35:44.731Z,100945.27
2019-06-07T17:38:16.026Z,100946.42
2019-06-07T17:40:47.221Z,100941.81
2019-06-07T17:43:18.415Z,100949.56
2019-06-07T17:45:51.565Z,100952.52
2019-06-07T17:48:24.043Z,100951.13
2019-06-07T17:50:55.355Z,100954.00
2019-06-07T17:53:26.602Z,100949.44
2019-06-07T17:55:57.747Z,100959.78
2019-06-07T17:58:29.075Z,100963.45
2019-06-07T18:01:00.244Z,100962.72
2019-06-07T18:03:31.448Z,100964.44
2019-06-07T18:06:03.801Z,100960.70
2019-06-07T18:08:36.060Z,100968.20
2019-06-07T18:11:07.219Z,100973.07
2019-06-07T18:13:38.360Z,100970.89
2019-06-07T18:16:09.521Z,100977.36
2019-06-07T18:18:40.736Z,100975.56
2019-06-07T18:21:11.923Z,100980.94
2019-06-07T18:23:43.139Z,100982.55
2019-06-07T18:26:14.295Z,100987.00
2019-06-07T18:28:46.590Z,100985.61
2019-06-07T18:31:17.805Z,100983.15
2019-06-07T18:33:49.037Z,100993.02
2019-06-07T18:36:20.203Z,100994.40
2019-06-07T18:38:51.442Z,100991.89
2019-06-07T18:41:22.625Z,100991.24
2019-06-07T18:43:53.845Z,100998.05
2019-06-07T18:46:25.876Z,100993.30
2019-06-07T18:48:57.115Z,100995.30
2019-06-07T18:51:28.284Z,100998.48
2019-06-07T18:53:59.665Z,100999.37
2019-06-07T18:56:30.857Z,100998.78
2019-06-07T18:59:02.204Z,101001.28
2019-06-07T19:01:33.419Z,101001.35
2019-06-07T19:04:04.634Z,101004.70
2019-06-07T19:06:35.917Z,101002.30
2019-06-07T19:09:07.453Z,101001.20
2019-06-07T19:11:38.647Z,101008.13
2019-06-07T19:14:09.882Z,101007.27
2019-06-07T19:16:41.040Z,101012.23
2019-06-07T19:19:12.285Z,101008.84
2019-06-07T19:21:43.459Z,101015.44
2019-06-07T19:24:14.698Z,101013.70
2019-06-07T19:26:45.868Z,101015.38
2019-06-07T19:29:17.102Z,101008.49
2019-06-07T19:31:48.306Z,101011.61
2019-06-07T19:34:19.591Z,101014.94
2019-06-07T19:36:51.469Z,101016.39
2019-06-07T19:39:22.738Z,101017.31
2019-06-07T19:41:54.021Z,101022.87
2019-06-07T19:44:25.300Z,101024.30
2019-06-07T19:46:58.496Z,101024.88
2019-06-07T19:49:29.753Z,101021.67
2019-06-07T19:52:01.127Z,101025.84
2019-06-07T19:54:32.485Z,101023.64
2019-06-07T19:57:03.770Z,101030.41
2019-06-07T19:59:35.020Z,101032.58
2019-06-07T20:02:06.226Z,101029.84
2019-06-07T20:04:37.436Z,101035.42
2019-06-07T20:07:08.592Z,101026.30
2019-06-07T20:09:39.812Z,101028.81
2019-06-07T20:12:10.908Z,101037.95
2019-06-07T20:14:42.160Z,101040.76
2019-06-07T20:17:13.426Z,101037.51
2019-06-07T20:19:44.629Z,101036.09
2019-06-07T20:22:15.802Z,101043.05
2019-06-07T20:24:47.040Z,101045.56
2019-06-07T20:27:18.180Z,101046.72
2019-06-07T20:29:49.428Z,101046.46
2019-06-07T20:32:20.614Z,101044.80
2019-06-07T20:34:51.866Z,101051.42
2019-06-07T20:37:23.194Z,101052.56
2019-06-07T20:39:54.436Z,101049.78
2019-06-07T20:42:25.625Z,101053.68
2019-06-07T20:44:57.581Z,101044.52
2019-06-07T20:47:29.723Z,101042.32
2019-06-07T20:50:02.336Z,101045.37
2019-06-07T20:52:33.585Z,101043.16
2019-06-07T20:55:06.975Z,101040.39
2019-06-07T20:57:38.352Z,101038.75
2019-06-07T21:00:20.620Z,101036.54
2019-06-07T21:02:43.692Z,101030.42
2019-06-07T21:05:14.934Z,101038.48
2019-06-07T21:07:46.094Z,101034.63
2019-06-07T21:10:17.323Z,101035.74
2019-06-07T21:12:48.494Z,101040.13
2019-06-07T21:15:19.716Z,101032.12
2019-06-07T21:17:50.885Z,101036.84
2019-06-07T21:20:22.129Z,101033.80
2019-06-07T21:22:53.352Z,101028.27
2019-06-07T21:25:24.767Z,101022.72
2019-06-07T21:27:55.955Z,101030.49
2019-06-07T21:30:27.185Z,101024.40
2019-06-07T21:32:58.369Z,101020.78
2019-06-07T21:35:29.514Z,101024.09
2019-06-07T21:38:01.903Z,101021.33
2019-06-07T21:40:33.108Z,101024.67
2019-06-07T21:43:04.544Z,101027.14
2019-06-07T21:45:35.777Z,101025.49
2019-06-07T21:48:08.837Z,101029.09
2019-06-07T21:50:40.108Z,101028.27
2019-06-07T21:53:11.248Z,101027.70
2019-06-07T21:55:42.446Z,101032.40
2019-06-07T21:58:13.655Z,101031.88
2019-06-07T22:00:56.824Z,101033.81
2019-06-07T22:03:28.026Z,101031.02
2019-06-07T22:05:59.250Z,101041.00
2019-06-07T22:08:30.420Z,101037.92
2019-06-07T22:11:01.622Z,101038.46
2019-06-07T22:13:32.817Z,101039.27
2019-06-07T22:16:04.138Z,101030.09
2019-06-07T22:18:35.304Z,101028.12
2019-06-07T22:21:06.518Z,101023.69
2019-06-07T22:23:37.665Z,101031.48
2019-06-07T22:26:09.043Z,101026.98
2019-06-07T22:28:40.215Z,101023.97
2019-06-07T22:31:12.761Z,101029.98
2019-06-07T22:33:43.943Z,101028.62
2019-06-07T22:36:15.998Z,101031.78
2019-06-07T22:38:47.254Z,101023.73
2019-06-07T22:41:18.464Z,101027.40
2019-06-07T22:43:49.628Z,101023.27
2019-06-07T22:46:35.918Z,101019.95
2019-06-07T22:48:56.181Z,101021.05
2019-06-07T22:51:27.406Z,101007.76
2019-06-07T22:53:58.601Z,101010.53
2019-06-07T22:56:31.403Z,101013.84
2019-06-07T22:59:02.573Z,101015.53
2019-06-07T23:01:33.958Z,101018.84
2019-06-07T23:04:05.137Z,101019.96
2019-06-07T23:06:36.364Z,101016.03
2019-06-07T23:09:08.822Z,101019.67
2019-06-07T23:11:40.113Z,101014.94
2019-06-07T23:14:11.297Z,101023.52
2019-06-07T23:16:55.029Z,101020.75
2019-06-07T23:19:16.251Z,101026.28
2019-06-07T23:21:47.487Z,101027.98
2019-06-07T23:24:20.132Z,101029.91
2019-06-07T23:26:51.697Z,101024.66
2019-06-07T23:29:22.912Z,101031.57
2019-06-07T23:32:10.491Z,101024.10
2019-06-07T23:34:41.694Z,101025.73
2019-06-07T23:37:13.097Z,101031.22
2019-06-07T23:39:44.292Z,101028.47
2019-06-07T23:42:15.592Z,101031.50
2019-06-07T23:44:46.726Z,101034.00
2019-06-07T23:47:20.122Z,101029.86
2019-06-07T23:49:51.830Z,101026.27
2019-06-07T23:52:23.040Z,101031.00
2019-06-07T23:54:54.126Z,101030.16
2019-06-07T23:57:25.342Z,101025.48
2019-06-07T23:59:56.504Z,101027.43
